Bloomfield, Michigan
Current Conditions -  °F | °C
As of 3:56 PM on Sunday 23 Nov 2014 (Local Time) from KVLL Reporting Station
Overcast Overcast  
Wind Chill: 54°   Ceiling: 2400
Heat Index: 54°   Visibility: 10mi
Dew Point: 46°   Wind: 5mph
Humidity: 77%   Direction: 120°ESE
Pressure: 29.72"   Gusts: NA
Location:  42.5836°N, 83.2458°W
Report Text: KVLL 232056Z AUTO 12004KT 10SM BKN024 OVC029 12/08 A2972 RMK AO2
Loading
Personal Weather Stations






























Interactive Weather Map New forecast layout! Learn more

10-Day Weather Forecast

Advertisements
Track Severe Weather on mobile